Friday, February 12, 2016, 11:23 PM EST

KRIC, Richmond International Airport

Location: Sandston, VA, United States Lat: 37.517
Local Time: 11:23 PM EST ( 4:23 GMT) Lon: -77.317
Time Zone: US/Eastern Elev: 167 ft

Show me the last for .
Show Decoded

2016-02-12 22:54 METAR KRIC 130354Z 00000KT 10SM SCT050 BKN070 M04/M07 A3001 RMK AO2 SLP167
                 T10441072 =
2016-02-12 21:54 METAR KRIC 130254Z 00000KT 10SM FEW045 OVC080 M03/M07 A3000 RMK AO2 SLP166
                 T10331072 55002 =
2016-02-12 20:54 METAR KRIC 130154Z 20003KT 10SM BKN085 M04/M08 A3000 RMK AO2 SLP167 T10391078 =
2016-02-12 19:54 METAR KRIC 130054Z 23007KT 10SM FEW040 BKN100 M03/M08 A3001 RMK AO2 SLP169
                 T10281078 =
2016-02-12 18:54 METAR KRIC 122354Z 20008KT 10SM SCT040 BKN100 M03/M08 A3001 RMK AO2 SLP170 60000
                 T10281078 11022 21033 56013 =
2016-02-12 17:54 METAR KRIC 122254Z 19007KT 10SM OVC039 M02/M09 A3002 RMK AO2 SLP173 T10221089 =
2016-02-12 16:54 METAR KRIC 122154Z 17005KT 10SM BKN035 OVC080 M02/M11 A3002 RMK AO2 SNE03 SLP173
                 P0000 T10221106 =
2016-02-12 15:54 METAR KRIC 122054Z VRB03KT 9SM -SN SCT043 OVC065 M02/M10 A3005 RMK AO2 SNB10
                 SLP183 P0000 60000 T10221100 56043 =
2016-02-12 14:54 METAR KRIC 121954Z 17007KT 10SM FEW035 OVC065 M02/M11 A3008 RMK AO2 SLP195
                 T10221111 =
2016-02-12 13:54 METAR KRIC 121854Z 17006KT 10SM BKN050 OVC070 M03/M14 A3013 RMK AO2 SLP211
                 T10281139 =
2016-02-12 12:54 METAR KRIC 121754Z 19003KT 10SM OVC070 M03/M16 A3018 RMK AO2 SLP226 T10331156
                 11028 21083 58037 =
2016-02-12 11:54 METAR KRIC 121654Z VRB04KT 10SM SCT065 OVC090 M04/M15 A3023 RMK AO2 SLP243
                 T10391150 =
2016-02-12 10:54 METAR KRIC 121554Z 16007KT 10SM BKN060 OVC120 M04/M15 A3026 RMK AO2 SLP256
                 T10391150 =
2016-02-12 09:54 METAR KRIC 121454Z 11005KT 10SM BKN060 BKN120 OVC180 M04/M15 A3029 RMK AO2
                 SLP263 T10441150 58013 =
2016-02-12 08:54 METAR KRIC 121354Z 12006KT 10SM SCT065 BKN120 BKN180 M06/M13 A3032 RMK AO2
                 SLP275 T10561133 =
2016-02-12 07:54 METAR KRIC 121254Z 00000KT 10SM BKN120 BKN180 M07/M12 A3032 RMK AO2 SLP276
                 T10671122 =
2016-02-12 06:54 METAR KRIC 121154Z 16003KT 10SM SCT180 M08/M13 A3032 RMK AO2 SLP276 T10831128
                 11061 21089 50001 =
2016-02-12 05:54 METAR KRIC 121054Z 00000KT 10SM SCT140 SCT200 M07/M12 A3033 RMK AO2 SLP276
                 T10721122 =
2016-02-12 04:54 METAR KRIC 120954Z 00000KT 10SM SCT140 BKN200 M07/M14 A3033 RMK AO2 SLP277
                 T10721139 =
2016-02-12 03:54 METAR KRIC 120854Z 08004KT 10SM BKN150 BKN210 M07/M13 A3032 RMK AO2 SLP274
                 T10671133 58007 =
2016-02-12 02:54 METAR KRIC 120754Z 00000KT 10SM BKN140 BKN210 M07/M13 A3033 RMK AO2 SLP279
                 T10671128 =
2016-02-12 01:54 METAR KRIC 120654Z 00000KT 10SM SCT180 M07/M14 A3033 RMK AO2 SLP279 T10671144 =
2016-02-12 00:54 METAR KRIC 120554Z 00000KT 10SM FEW300 M07/M14 A3034 RMK AO2 SLP282 T10671144
                 11017 21078 53010 =
2016-02-11 23:54 METAR KRIC 120454Z 01004KT 10SM CLR M06/M16 A3033 RMK AO2 SLP277 T10611161
                 400111061 =

Support USWX by starting your Amazon purchase here.